Time;durP1;ratioP1;P1;durP2;ratioP2;P2;SDS_P1;SDS_P2;PMS_P1;PMS_P2;Temp;Humidity;BMP_temperature;BMP_pressure;BME280_temperature;BME280_humidity;BME280_pressure;Samples;Min_cycle;Max_cycle;Signal;HPM_P1;HPM_P2
2022/08/20 00:00:30;;;;;;;14.60;11.65;;;;;;;20.46;100.00;97715.02;1753687;80;20962;-91
2022/08/20 00:03:04;;;;;;;20.68;11.50;;;;;;;20.41;100.00;97720.73;1738675;81;21451;-87
2022/08/20 00:05:37;;;;;;;17.75;11.03;;;;;;;20.37;100.00;97726.16;1750890;81;21386;-86
2022/08/20 00:08:03;;;;;;;16.20;10.82;;;;;;;20.34;100.00;97730.16;1757208;81;21420;-91
2022/08/20 00:10:30;;;;;;;16.60;11.95;;;;;;;20.29;100.00;97732.60;1740205;81;20960;-87
2022/08/20 00:12:56;;;;;;;18.98;12.88;;;;;;;20.25;100.00;97726.19;1740770;81;21106;-87
2022/08/20 00:15:27;;;;;;;17.32;11.83;;;;;;;20.22;100.00;97725.52;1729902;82;20968;-86
2022/08/20 00:17:53;;;;;;;19.27;11.83;;;;;;;20.18;100.00;97712.25;1745323;81;20959;-92
2022/08/20 00:20:21;;;;;;;17.37;11.43;;;;;;;20.13;100.00;97698.73;1747684;81;20999;-90
2022/08/20 00:22:47;;;;;;;18.55;12.43;;;;;;;20.12;100.00;97703.44;1751036;81;21029;-91
2022/08/20 00:25:13;;;;;;;14.45;12.00;;;;;;;20.11;100.00;97688.67;1750899;82;20862;-86
2022/08/20 00:27:39;;;;;;;15.53;10.75;;;;;;;20.09;100.00;97693.72;1750862;82;20938;-91
2022/08/20 00:30:07;;;;;;;15.03;11.00;;;;;;;20.11;100.00;97692.80;1740399;81;20887;-91
2022/08/20 00:32:45;;;;;;;14.98;11.03;;;;;;;20.09;100.00;97692.34;1732078;82;21491;-91
2022/08/20 00:35:10;;;;;;;17.82;12.35;;;;;;;20.04;100.00;97689.26;1747405;81;21003;-86
2022/08/20 00:37:36;;;;;;;16.30;11.65;;;;;;;19.96;100.00;97689.63;1751115;82;21333;-86
2022/08/20 00:40:04;;;;;;;18.27;12.75;;;;;;;19.88;100.00;97691.14;1750901;82;20899;-88
2022/08/20 00:42:30;;;;;;;17.60;12.35;;;;;;;19.81;100.00;97688.98;1730293;82;20968;-87
2022/08/20 00:44:56;;;;;;;17.62;11.78;;;;;;;19.81;100.00;97690.93;1712466;82;21019;-90
2022/08/20 00:47:22;;;;;;;20.20;12.50;;;;;;;19.81;100.00;97688.18;1756477;81;20972;-87
2022/08/20 00:49:48;;;;;;;12.73;10.72;;;;;;;19.83;100.00;97688.66;1757553;81;22006;-87
2022/08/20 00:52:17;;;;;;;15.00;11.25;;;;;;;19.80;100.00;97690.13;1766051;81;20878;-88
2022/08/20 00:54:53;;;;;;;15.70;11.18;;;;;;;19.78;100.00;97690.27;1728570;81;21026;-91
2022/08/20 00:57:42;;;;;;;15.50;10.88;;;;;;;19.70;100.00;97683.75;1743962;81;21026;-88
2022/08/20 01:00:13;;;;;;;20.60;12.07;;;;;;;19.59;100.00;97682.06;1764189;79;20978;-91
2022/08/20 01:02:41;;;;;;;19.62;12.80;;;;;;;19.54;100.00;97696.57;1781217;80;21446;-87
2022/08/20 01:05:08;;;;;;;18.55;11.60;;;;;;;19.53;100.00;97698.52;1732350;81;20987;-87
2022/08/20 01:07:35;;;;;;;18.65;12.13;;;;;;;19.53;100.00;97700.47;1750883;82;21034;-86
2022/08/20 01:10:10;;;;;;;15.45;12.00;;;;;;;19.53;100.00;97708.14;1749074;81;21005;-87
2022/08/20 01:12:36;;;;;;;18.42;12.25;;;;;;;19.51;100.00;97695.33;1765899;81;21434;-87
2022/08/20 01:15:04;;;;;;;15.05;11.78;;;;;;;19.50;100.00;97708.84;1758253;81;21092;-87
2022/08/20 01:17:31;;;;;;;17.48;11.97;;;;;;;19.47;100.00;97696.34;1743595;81;21490;-90
2022/08/20 01:20:05;;;;;;;17.32;11.57;;;;;;;19.42;100.00;97695.45;1764779;79;20958;-90
2022/08/20 01:26:10;;;;;;;17.98;12.60;;;;;;;19.29;100.00;97686.98;1751625;81;20963;-88
2022/08/20 01:28:44;;;;;;;18.27;12.40;;;;;;;19.26;100.00;97687.67;1736470;81;21789;-87
2022/08/20 01:31:14;;;;;;;17.80;12.78;;;;;;;19.22;100.00;97680.45;1730374;82;21479;-86
2022/08/20 01:33:40;;;;;;;15.50;12.15;;;;;;;19.20;100.00;97684.92;1750977;82;20987;-91
2022/08/20 01:36:06;;;;;;;20.55;12.70;;;;;;;19.22;100.00;97700.48;1750912;82;21003;-90
2022/08/20 01:38:33;;;;;;;21.85;13.70;;;;;;;19.27;100.00;97707.70;1740692;81;20998;-86
2022/08/20 01:41:42;;;;;;;17.20;12.78;;;;;;;19.31;100.00;97700.36;1750927;81;21281;-91
2022/08/20 01:44:08;;;;;;;19.40;12.40;;;;;;;19.29;100.00;97697.97;1740224;81;21019;-91
2022/08/20 01:46:37;;;;;;;19.35;12.65;;;;;;;19.20;100.00;97701.98;1740907;82;20976;-86
2022/08/20 01:49:13;;;;;;;20.25;11.63;;;;;;;19.15;100.00;97707.14;1745296;81;21009;-87
2022/08/20 01:51:39;;;;;;;19.48;13.78;;;;;;;19.13;100.00;97711.58;1762876;81;20970;-86
2022/08/20 01:54:06;;;;;;;22.45;12.88;;;;;;;19.10;100.00;97709.53;1765908;81;21663;-86
2022/08/20 01:56:32;;;;;;;16.85;11.05;;;;;;;19.08;100.00;97708.28;1766317;81;20959;-92
2022/08/20 01:59:00;;;;;;;16.17;11.95;;;;;;;19.05;100.00;97711.12;1753417;81;20992;-91
2022/08/20 02:01:33;;;;;;;19.25;13.53;;;;;;;18.99;100.00;97711.13;1742159;81;21028;-90
2022/08/20 02:04:01;;;;;;;18.45;12.75;;;;;;;18.93;100.00;97710.32;1743391;81;20971;-87
2022/08/20 02:06:30;;;;;;;16.60;12.30;;;;;;;18.92;100.00;97705.41;1744122;81;20990;-87
2022/08/20 02:08:58;;;;;;;19.73;12.58;;;;;;;18.94;100.00;97721.53;1754103;81;26520;-86
2022/08/20 02:11:25;;;;;;;16.42;12.78;;;;;;;18.97;100.00;97727.70;1766558;81;20939;-87
2022/08/20 02:13:51;;;;;;;20.10;12.63;;;;;;;19.04;100.00;97722.45;1765993;81;20934;-90
2022/08/20 02:16:24;;;;;;;22.85;12.28;;;;;;;19.09;100.00;97727.16;1766412;81;21056;-90
2022/08/20 02:18:53;;;;;;;15.98;12.20;;;;;;;19.08;100.00;97713.20;1750071;81;21372;-91
2022/08/20 02:21:21;;;;;;;16.93;12.98;;;;;;;19.12;100.00;97709.18;1739435;81;21007;-87
2022/08/20 02:23:48;;;;;;;20.45;11.75;;;;;;;19.13;100.00;97707.46;1742953;81;21072;-90
2022/08/20 02:26:17;;;;;;;16.20;12.13;;;;;;;19.15;100.00;97703.83;1759719;81;20958;-87
2022/08/20 02:28:43;;;;;;;13.68;11.00;;;;;;;19.14;100.00;97701.39;1764532;81;20947;-91
2022/08/20 02:31:10;;;;;;;16.25;11.73;;;;;;;19.13;100.00;97710.78;1746173;81;21285;-87
2022/08/20 02:33:36;;;;;;;18.77;12.95;;;;;;;19.13;100.00;97708.03;1743737;81;20943;-91
2022/08/20 02:36:03;;;;;;;17.05;13.30;;;;;;;19.18;100.00;97706.45;1737864;81;20928;-91
2022/08/20 02:38:29;;;;;;;17.85;13.55;;;;;;;19.16;100.00;97704.05;1750400;81;21023;-90
2022/08/20 02:40:54;;;;;;;18.27;12.65;;;;;;;19.16;100.00;97693.06;1740683;81;20884;-87
2022/08/20 02:43:20;;;;;;;17.35;12.37;;;;;;;19.18;100.00;97692.72;1747694;79;21315;-86
2022/08/20 02:45:46;;;;;;;20.70;12.80;;;;;;;19.16;100.00;97704.63;1746338;81;20930;-87
2022/08/20 02:48:19;;;;;;;17.95;13.28;;;;;;;19.11;100.00;97700.72;1740076;81;21596;-90
2022/08/20 02:50:43;;;;;;;17.35;14.07;;;;;;;19.08;100.00;97707.70;1753999;81;21014;-89
2022/08/20 02:53:09;;;;;;;21.17;13.28;;;;;;;19.05;100.00;97704.25;1763140;81;20971;-91
2022/08/20 02:55:35;;;;;;;19.67;13.22;;;;;;;19.05;100.00;97692.47;1755458;81;21163;-87
2022/08/20 02:58:01;;;;;;;22.90;13.75;;;;;;;19.09;100.00;97685.16;1765932;81;20985;-91
2022/08/20 03:00:30;;;;;;;17.65;13.20;;;;;;;19.09;100.00;97677.73;1754393;81;21527;-87
2022/08/20 03:02:55;;;;;;;24.10;14.20;;;;;;;19.13;100.00;97686.06;1732030;81;21067;-90
2022/08/20 03:05:21;;;;;;;24.52;13.53;;;;;;;19.14;100.00;97689.03;1740538;81;20962;-90
2022/08/20 03:07:52;;;;;;;21.90;15.60;;;;;;;19.18;100.00;97685.85;1739214;81;22042;-91
2022/08/20 03:10:25;;;;;;;18.80;13.55;;;;;;;19.21;100.00;97681.03;1763908;81;20979;-87
2022/08/20 03:12:51;;;;;;;18.05;13.00;;;;;;;19.16;100.00;97672.47;1766069;81;20970;-91
2022/08/20 03:15:17;;;;;;;19.87;14.23;;;;;;;19.17;100.00;97669.15;1745171;81;20987;-87
2022/08/20 03:17:44;;;;;;;18.27;12.47;;;;;;;19.16;100.00;97664.23;1744351;81;21003;-91
2022/08/20 03:20:10;;;;;;;19.20;12.58;;;;;;;19.14;100.00;97660.20;1747788;81;21164;-86
2022/08/20 03:22:36;;;;;;;16.45;11.68;;;;;;;19.10;100.00;97651.86;1748976;81;20979;-86
2022/08/20 03:25:03;;;;;;;17.80;11.18;;;;;;;19.04;100.00;97643.63;1752738;80;21030;-90
2022/08/20 03:27:29;;;;;;;20.68;12.73;;;;;;;19.01;100.00;97645.69;1737052;81;21546;-87
2022/08/20 03:29:55;;;;;;;19.27;12.98;;;;;;;18.96;100.00;97651.97;1755512;81;21011;-91
2022/08/20 03:32:21;;;;;;;18.45;12.18;;;;;;;18.96;100.00;97656.09;1766041;81;21879;-86
2022/08/20 03:34:47;;;;;;;15.60;11.48;;;;;;;18.96;100.00;97661.01;1765946;81;20961;-91
2022/08/20 03:37:13;;;;;;;19.65;12.30;;;;;;;18.93;100.00;97663.66;1766050;81;21033;-90
2022/08/20 03:39:39;;;;;;;18.87;13.55;;;;;;;18.92;100.00;97663.42;1745926;81;20844;-87
2022/08/20 03:42:05;;;;;;;19.12;13.18;;;;;;;18.95;100.00;97672.34;1745328;82;20959;-87
2022/08/20 03:44:32;;;;;;;15.65;13.18;;;;;;;18.99;100.00;97667.20;1740249;81;21692;-87
2022/08/20 03:46:58;;;;;;;23.40;13.08;;;;;;;19.02;100.00;97667.08;1736239;81;20967;-90
2022/08/20 03:49:24;;;;;;;20.43;12.73;;;;;;;19.03;100.00;97663.19;1761344;81;20886;-86
2022/08/20 03:51:50;;;;;;;21.80;13.30;;;;;;;19.04;100.00;97668.91;1765826;81;20835;-87
2022/08/20 03:54:16;;;;;;;15.32;12.10;;;;;;;19.04;100.00;97664.79;1765936;81;21021;-90
2022/08/20 03:56:42;;;;;;;17.37;12.53;;;;;;;19.05;100.00;97663.64;1766013;81;21135;-91
2022/08/20 03:59:08;;;;;;;20.88;12.55;;;;;;;19.07;100.00;97667.67;1764239;81;20922;-86
2022/08/20 04:01:34;;;;;;;17.60;13.43;;;;;;;19.08;100.00;97671.21;1783364;79;21435;-90
2022/08/20 04:04:00;;;;;;;18.12;13.25;;;;;;;19.09;100.00;97674.98;1749828;80;21573;-91
2022/08/20 04:06:28;;;;;;;16.77;12.47;;;;;;;19.10;100.00;97667.55;1761174;81;20902;-86
2022/08/20 04:08:55;;;;;;;20.52;12.85;;;;;;;19.13;100.00;97666.27;1750820;81;21443;-91
2022/08/20 04:11:21;;;;;;;20.35;12.63;;;;;;;19.13;100.00;97658.03;1746288;81;21018;-86
2022/08/20 04:13:47;;;;;;;19.48;12.50;;;;;;;19.14;100.00;97659.66;1745417;81;20899;-87
2022/08/20 04:16:12;;;;;;;19.90;11.53;;;;;;;19.12;100.00;97654.27;1756085;81;20940;-86
2022/08/20 04:18:39;;;;;;;15.48;11.40;;;;;;;19.09;100.00;97647.52;1746887;81;20905;-87
2022/08/20 04:21:05;;;;;;;16.80;12.53;;;;;;;19.09;100.00;97622.01;1751870;80;21167;-86
2022/08/20 04:23:31;;;;;;;18.90;12.23;;;;;;;19.07;100.00;97620.98;1758626;81;20950;-87
2022/08/20 04:25:57;;;;;;;22.85;11.83;;;;;;;19.07;100.00;97618.23;1766340;79;21052;-91
2022/08/20 04:28:27;;;;;;;15.55;11.22;;;;;;;19.05;100.00;97610.10;1764604;80;20997;-87
2022/08/20 04:30:54;;;;;;;17.60;11.85;;;;;;;19.00;100.00;97613.09;1740738;81;21014;-86
2022/08/20 04:33:21;;;;;;;15.30;12.33;;;;;;;18.96;100.00;97614.91;1750627;81;21379;-90
2022/08/20 04:35:47;;;;;;;15.53;12.65;;;;;;;19.00;100.00;97619.39;1740540;81;21011;-87
2022/08/20 04:38:15;;;;;;;18.57;13.53;;;;;;;19.06;100.00;97618.02;1744944;81;21016;-90
2022/08/20 04:40:53;;;;;;;14.35;12.55;;;;;;;19.14;100.00;97622.59;1766121;81;21022;-90
2022/08/20 04:43:22;;;;;;;19.82;11.48;;;;;;;19.25;100.00;97613.88;1755218;81;21396;-87
2022/08/20 04:45:48;;;;;;;16.80;12.37;;;;;;;19.24;100.00;97611.70;1722908;81;21130;-91
2022/08/20 04:48:14;;;;;;;16.45;11.28;;;;;;;19.32;100.00;97605.27;1729060;81;21478;-89
2022/08/20 04:50:43;;;;;;;18.42;12.45;;;;;;;19.38;100.00;97602.49;1739118;81;21395;-88
2022/08/20 04:53:11;;;;;;;20.77;12.78;;;;;;;19.43;100.00;97613.25;1744482;81;20975;-87
2022/08/20 04:55:40;;;;;;;20.45;12.70;;;;;;;19.48;100.00;97615.52;1742139;81;21442;-87
2022/08/20 04:58:09;;;;;;;16.05;12.05;;;;;;;19.58;100.00;97613.71;1750172;81;21126;-91
2022/08/20 05:00:36;;;;;;;14.00;11.40;;;;;;;19.65;100.00;97618.84;1753145;81;20993;-87
2022/08/20 05:03:02;;;;;;;15.10;11.03;;;;;;;19.74;100.00;97614.58;1738762;81;21014;-89
2022/08/20 05:05:29;;;;;;;19.95;13.40;;;;;;;19.83;100.00;97612.48;1756077;81;20981;-91
2022/08/20 05:07:56;;;;;;;15.08;11.35;;;;;;;19.94;100.00;97610.81;1761322;81;21002;-87
2022/08/20 05:10:24;;;;;;;17.12;12.33;;;;;;;20.07;100.00;97605.25;1726318;82;21528;-91
2022/08/20 05:12:50;;;;;;;20.10;12.43;;;;;;;20.12;100.00;97603.05;1732722;81;21007;-90
2022/08/20 05:15:16;;;;;;;23.10;13.10;;;;;;;20.21;100.00;97597.39;1736340;81;20848;-86
2022/08/20 05:17:43;;;;;;;18.62;12.28;;;;;;;20.27;100.00;97598.16;1736311;81;21004;-91
2022/08/20 05:20:12;;;;;;;18.55;11.95;;;;;;;20.34;100.00;97601.68;1731389;79;21458;-87
2022/08/20 05:22:38;;;;;;;19.82;10.98;;;;;;;20.39;100.00;97590.97;1766332;81;21129;-90
2022/08/20 05:25:05;;;;;;;19.82;11.45;;;;;;;20.46;100.00;97594.73;1766045;81;20977;-91
2022/08/20 05:27:30;;;;;;;16.00;11.63;;;;;;;20.52;100.00;97596.08;1738487;81;21419;-86
2022/08/20 05:30:05;;;;;;;22.27;12.33;;;;;;;20.58;100.00;97602.09;1761532;81;20858;-90
2022/08/20 05:32:30;;;;;;;15.83;11.80;;;;;;;20.64;100.00;97604.02;1764588;81;21060;-87
2022/08/20 05:34:56;;;;;;;19.48;12.30;;;;;;;20.70;100.00;97601.23;1743902;81;21328;-87
2022/08/20 05:37:22;;;;;;;18.15;11.43;;;;;;;20.78;100.00;97607.92;1736722;81;21566;-88
2022/08/20 05:39:48;;;;;;;16.15;11.45;;;;;;;20.91;100.00;97616.08;1761771;81;20870;-87
2022/08/20 05:42:14;;;;;;;21.97;11.33;;;;;;;20.95;100.00;97619.73;1763529;81;20866;-90
2022/08/20 05:44:40;;;;;;;19.12;11.18;;;;;;;20.99;99.91;97621.97;1741329;81;20980;-91
2022/08/20 05:47:06;;;;;;;20.08;11.53;;;;;;;20.96;99.03;97619.95;1720091;83;21124;-91
2022/08/20 05:49:32;;;;;;;14.47;11.65;;;;;;;20.98;99.00;97630.81;1717770;81;20916;-87
2022/08/20 05:51:59;;;;;;;21.65;11.97;;;;;;;20.97;98.90;97630.60;1716104;82;32714;-87
2022/08/20 05:54:26;;;;;;;18.55;12.07;;;;;;;21.00;98.48;97636.77;1744346;81;21556;-87
2022/08/20 05:56:52;;;;;;;21.35;11.57;;;;;;;21.00;98.87;97637.34;1752010;81;21503;-87
2022/08/20 05:59:19;;;;;;;19.85;12.15;;;;;;;21.04;99.13;97637.66;1754338;81;21261;-91
2022/08/20 06:01:45;;;;;;;21.45;12.03;;;;;;;21.07;99.22;97631.42;1786208;79;20968;-87
2022/08/20 06:04:23;;;;;;;18.12;10.55;;;;;;;21.13;98.95;97639.64;1768341;81;20918;-87
2022/08/20 06:06:59;;;;;;;17.80;11.63;;;;;;;21.24;98.25;97636.33;1744835;81;21451;-87
2022/08/20 06:09:25;;;;;;;19.12;11.40;;;;;;;21.21;97.86;97635.68;1750910;81;21294;-87
2022/08/20 06:11:52;;;;;;;20.72;11.57;;;;;;;21.26;96.90;97634.80;1740816;80;21107;-91
2022/08/20 06:14:19;;;;;;;17.35;11.53;;;;;;;21.23;96.79;97636.91;1743216;80;20870;-90
2022/08/20 06:16:45;;;;;;;13.32;10.15;;;;;;;21.24;97.21;97630.83;1758572;80;21445;-88
2022/08/20 06:19:11;;;;;;;15.23;10.78;;;;;;;21.31;97.12;97629.64;1741901;80;21046;-91
2022/08/20 06:21:38;;;;;;;21.97;11.68;;;;;;;21.37;96.57;97629.59;1765504;81;20996;-88
2022/08/20 06:24:05;;;;;;;17.80;11.78;;;;;;;21.39;96.65;97636.91;1765648;80;21335;-86
2022/08/20 06:26:33;;;;;;;18.05;10.60;;;;;;;21.44;95.71;97633.06;1765818;81;20934;-87
2022/08/20 06:29:01;;;;;;;21.20;11.43;;;;;;;21.43;95.13;97636.40;1766068;81;20978;-90
2022/08/20 06:31:27;;;;;;;18.73;12.30;;;;;;;21.41;95.44;97635.97;1763660;81;20958;-87
2022/08/20 06:33:53;;;;;;;23.92;12.95;;;;;;;21.44;95.36;97636.61;1740017;81;21050;-90
2022/08/20 06:36:19;;;;;;;22.32;11.90;;;;;;;21.44;95.49;97637.99;1720610;81;21066;-89
2022/08/20 06:38:45;;;;;;;19.77;11.40;;;;;;;21.55;95.12;97638.25;1737585;81;21591;-87
2022/08/20 06:41:11;;;;;;;37.55;22.98;;;;;;;21.61;95.10;97632.65;1723924;80;20996;-91
2022/08/20 06:43:37;;;;;;;35.55;21.65;;;;;;;21.68;94.94;97625.91;1734776;81;20854;-88
2022/08/20 06:46:04;;;;;;;27.60;20.30;;;;;;;21.80;94.45;97627.17;1744579;81;20872;-90
2022/08/20 06:48:30;;;;;;;22.82;14.38;;;;;;;21.89;94.34;97633.84;1743772;81;21125;-87
2022/08/20 06:50:56;;;;;;;20.52;11.38;;;;;;;22.02;93.72;97631.14;1728470;81;21051;-87
2022/08/20 06:53:22;;;;;;;19.02;11.63;;;;;;;22.15;93.65;97634.00;1728776;81;20966;-90
2022/08/20 06:55:51;;;;;;;21.70;12.53;;;;;;;22.26;93.08;97620.41;1733700;81;20954;-87
2022/08/20 06:58:17;;;;;;;21.80;11.10;;;;;;;22.36;93.35;97620.38;1741319;81;20991;-90
2022/08/20 07:00:44;;;;;;;20.40;11.75;;;;;;;22.45;92.95;97626.45;1765149;80;21392;-87
2022/08/20 07:03:11;;;;;;;16.12;10.93;;;;;;;22.53;92.15;97624.04;1770037;80;21073;-91
2022/08/20 07:05:41;;;;;;;16.30;9.85;;;;;;;22.53;92.43;97628.98;1734357;81;21063;-91
2022/08/20 07:08:12;;;;;;;18.17;9.55;;;;;;;22.61;90.96;97624.97;1726126;81;21034;-87
2022/08/20 07:10:41;;;;;;;16.30;10.93;;;;;;;22.55;91.40;97620.91;1740145;82;21019;-87
2022/08/20 07:13:07;;;;;;;14.78;10.08;;;;;;;22.56;91.47;97625.26;1750578;81;21127;-91
2022/08/20 07:15:33;;;;;;;16.75;10.60;;;;;;;22.70;91.37;97628.27;1740370;81;21014;-91
2022/08/20 07:18:02;;;;;;;15.58;10.18;;;;;;;22.81;90.91;97627.28;1738770;82;20974;-87
2022/08/20 07:20:30;;;;;;;16.87;10.05;;;;;;;22.97;90.18;97625.00;1740370;81;21042;-87
2022/08/20 07:22:57;;;;;;;14.20;10.45;;;;;;;23.10;89.44;97629.16;1739665;81;21019;-90
2022/08/20 07:25:23;;;;;;;16.00;10.48;;;;;;;23.25;87.92;97627.42;1739587;81;21133;-87
2022/08/20 07:27:49;;;;;;;13.05;9.73;;;;;;;23.38;87.62;97627.40;1732195;81;21554;-90
2022/08/20 07:33:04;;;;;;;12.28;9.65;;;;;;;24.15;87.58;97612.20;1754897;79;21016;-88
2022/08/20 07:35:30;;;;;;;16.27;9.50;;;;;;;25.15;85.38;97604.85;1743769;79;20839;-88
2022/08/20 07:37:56;;;;;;;16.02;9.48;;;;;;;25.73;84.84;97604.03;1747622;81;21801;-88
2022/08/20 07:40:29;;;;;;;12.45;8.35;;;;;;;25.77;81.65;97611.16;1754743;79;20865;-90
2022/08/20 07:42:59;;;;;;;18.87;9.48;;;;;;;25.95;79.67;97610.44;1746210;80;21009;-91
2022/08/20 07:45:25;;;;;;;16.37;9.70;;;;;;;26.49;77.84;97623.33;1737699;81;20991;-90
2022/08/20 07:47:52;;;;;;;12.90;8.38;;;;;;;27.52;76.82;97621.94;1736790;81;21044;-88
2022/08/20 07:50:21;;;;;;;18.10;8.70;;;;;;;27.94;77.13;97626.38;1734810;81;21080;-88
2022/08/20 07:52:51;;;;;;;14.30;8.73;;;;;;;28.53;73.20;97614.75;1731294;81;21027;-89
2022/08/20 07:55:15;;;;;;;15.05;8.90;;;;;;;29.11;68.29;97612.34;1755699;81;20974;-89
2022/08/20 07:57:42;;;;;;;13.65;8.35;;;;;;;29.00;67.57;97606.87;1751394;81;20923;-88
2022/08/20 08:00:11;;;;;;;12.63;7.85;;;;;;;29.13;66.72;97597.38;1750977;79;21017;-91
2022/08/20 08:02:37;;;;;;;13.18;8.38;;;;;;;29.58;68.02;97597.37;1750256;81;21126;-90
2022/08/20 08:05:04;;;;;;;15.48;8.93;;;;;;;29.47;67.31;97597.44;1755283;81;20978;-88
2022/08/20 08:07:31;;;;;;;12.68;7.65;;;;;;;29.52;67.79;97601.81;1746959;81;20996;-90
2022/08/20 08:09:57;;;;;;;18.62;7.85;;;;;;;29.78;63.03;97589.94;1743299;81;21037;-91
2022/08/20 08:12:23;;;;;;;15.83;8.10;;;;;;;29.30;64.40;97593.62;1737286;81;20961;-88
2022/08/20 08:14:49;;;;;;;11.00;7.17;;;;;;;29.57;64.54;97591.00;1742473;81;21137;-88
2022/08/20 08:17:15;;;;;;;16.27;7.28;;;;;;;30.04;64.28;97596.80;1734260;81;20962;-90
2022/08/20 08:19:47;;;;;;;12.55;7.80;;;;;;;30.20;63.92;97583.65;1754653;81;21002;-91
2022/08/20 08:22:16;;;;;;;13.90;7.17;;;;;;;29.89;64.94;97587.02;1771597;81;20997;-91
2022/08/20 08:24:42;;;;;;;;;;;;;;;30.03;60.94;97590.42;1774407;81;21450;-88
2022/08/20 08:27:09;;;;;;;12.10;7.33;;;;;;;30.54;61.22;97582.15;1770854;80;21155;-90
2022/08/20 08:29:36;;;;;;;13.20;6.67;;;;;;;30.80;61.43;97581.36;1762312;80;21026;-91
2022/08/20 08:32:03;;;;;;;15.63;7.25;;;;;;;31.16;59.07;97574.53;1756694;80;20998;-88
2022/08/20 08:34:32;;;;;;;16.02;7.12;;;;;;;31.16;59.07;97574.53;1755217;80;20987;-88
2022/08/20 08:37:00;;;;;;;11.35;6.62;;;;;;;31.78;57.74;97566.60;1756322;80;21410;-89
2022/08/20 08:39:26;;;;;;;12.07;6.17;;;;;;;32.51;55.94;97556.22;1765299;81;20991;-88
2022/08/20 08:41:56;;;;;;;9.98;6.30;;;;;;;32.79;56.25;97554.73;1756675;81;21173;-91
2022/08/20 08:44:27;;;;;;;;;;;;;;;33.26;53.27;97546.73;1759557;81;20958;-89
2022/08/20 08:47:04;;;;;;;12.33;6.58;;;;;;;34.07;52.26;97544.87;1762795;80;20148;-91
2022/08/20 08:49:34;;;;;;;15.38;6.03;;;;;;;34.54;50.71;97539.41;1742657;81;20959;-91
2022/08/20 08:52:08;;;;;;;12.68;6.65;;;;;;;34.68;48.89;97529.70;1758064;81;21106;-89
2022/08/20 08:54:34;;;;;;;13.75;6.97;;;;;;;34.85;46.27;97525.50;1745486;81;21573;-91
2022/08/20 08:57:00;;;;;;;13.68;7.08;;;;;;;34.82;45.89;97522.20;1693200;84;21453;-90
2022/08/20 08:59:28;;;;;;;12.40;6.45;;;;;;;35.04;44.33;97528.71;1693317;84;20968;-89
2022/08/20 09:01:56;;;;;;;14.18;6.45;;;;;;;35.03;44.20;97529.92;1709861;83;20996;-90
2022/08/20 09:04:32;;;;;;;14.30;6.83;;;;;;;34.40;42.47;97528.61;1689822;84;21182;-89
2022/08/20 09:06:58;;;;;;;9.98;6.37;;;;;;;33.63;43.29;97520.04;1697020;84;21048;-91
2022/08/20 09:09:29;;;;;;;11.15;6.83;;;;;;;33.00;46.25;97525.39;1694231;84;21030;-91
2022/08/20 09:12:02;;;;;;;12.18;7.00;;;;;;;32.59;47.61;97527.40;1669790;84;21014;-89
2022/08/20 09:14:28;;;;;;;14.45;7.15;;;;;;;33.00;48.00;97521.18;1746710;81;21057;-90
2022/08/20 09:16:54;;;;;;;14.58;7.42;;;;;;;33.24;46.96;97519.70;1759266;79;20946;-89
2022/08/20 09:19:20;;;;;;;12.28;7.08;;;;;;;33.01;47.31;97515.12;1741045;80;20876;-91
2022/08/20 09:21:46;;;;;;;12.23;7.22;;;;;;;33.33;47.12;97515.66;1737176;81;21015;-90
2022/08/20 09:24:12;;;;;;;16.27;7.80;;;;;;;33.99;45.82;97515.41;1748168;80;20866;-89
2022/08/20 09:26:38;;;;;;;13.70;7.12;;;;;;;34.50;45.54;97513.41;1749469;81;21494;-88
2022/08/20 09:29:04;;;;;;;13.03;7.25;;;;;;;35.05;45.32;97525.27;1765480;80;21192;-91
2022/08/20 09:31:30;;;;;;;13.83;7.00;;;;;;;35.03;44.33;97524.30;1745236;81;20853;-91
2022/08/20 09:33:56;;;;;;;13.15;6.25;;;;;;;35.64;41.52;97525.59;1757174;79;21049;-91
2022/08/20 09:36:22;;;;;;;13.75;6.92;;;;;;;36.53;42.43;97531.43;1743604;80;21076;-92
2022/08/20 09:38:48;;;;;;;16.55;6.95;;;;;;;36.40;40.95;97531.53;1733946;81;20999;-89
2022/08/20 09:41:14;;;;;;;11.75;6.80;;;;;;;36.19;40.59;97538.01;1736018;81;21178;-90
2022/08/20 09:43:40;;;;;;;11.55;7.10;;;;;;;36.22;40.76;97533.47;1753812;81;21486;-91
2022/08/20 09:46:06;;;;;;;9.98;6.85;;;;;;;36.49;40.65;97527.98;1748621;80;21617;-91
2022/08/20 09:48:32;;;;;;;10.25;6.50;;;;;;;36.78;40.28;97528.99;1740450;81;20879;-90
2022/08/20 09:50:58;;;;;;;11.53;6.80;;;;;;;36.33;39.30;97533.22;1741623;81;21033;-89
2022/08/20 09:53:24;;;;;;;11.18;6.58;;;;;;;35.11;40.87;97531.09;1743673;81;21151;-89
2022/08/20 09:55:53;;;;;;;9.68;6.20;;;;;;;35.88;41.10;97534.55;1761353;81;20866;-91
2022/08/20 09:58:42;;;;;;;8.38;6.25;;;;;;;35.46;41.48;97529.84;1765622;80;20998;-89
2022/08/20 10:01:13;;;;;;;11.22;6.90;;;;;;;36.12;41.23;97522.77;1734262;80;21025;-91
2022/08/20 10:03:41;;;;;;;7.03;6.15;;;;;;;35.97;39.71;97527.39;1726897;81;21071;-89
2022/08/20 10:06:07;;;;;;;;;;;;;;;36.17;40.35;97522.19;1741378;81;21139;-89
2022/08/20 10:08:33;;;;;;;11.05;6.37;;;;;;;35.96;39.23;97525.82;1740500;81;20162;-89
2022/08/20 10:10:59;;;;;;;12.25;6.83;;;;;;;36.40;39.87;97530.13;1728685;81;20996;-89
2022/08/20 10:13:25;;;;;;;8.93;6.72;;;;;;;35.93;40.25;97533.17;1761368;81;20898;-89
2022/08/20 10:15:51;;;;;;;10.63;6.80;;;;;;;34.09;42.18;97526.31;1746118;80;20983;-91
2022/08/20 10:18:17;;;;;;;8.90;6.87;;;;;;;33.04;44.79;97522.64;1739233;81;21141;-89
2022/08/20 10:20:43;;;;;;;11.43;6.15;;;;;;;32.91;45.20;97518.22;1758068;81;20893;-91
2022/08/20 10:23:09;;;;;;;10.90;6.97;;;;;;;31.69;47.19;97525.14;1763973;81;20851;-88
2022/08/20 10:25:36;;;;;;;11.33;7.75;;;;;;;31.59;48.07;97519.78;1744272;81;21085;-91
2022/08/20 10:28:02;;;;;;;13.03;7.90;;;;;;;31.08;51.44;97525.52;1739692;81;21315;-92
2022/08/20 10:30:28;;;;;;;13.83;8.58;;;;;;;31.06;52.15;97529.36;1741483;81;21692;-88
2022/08/20 10:32:54;;;;;;;12.70;7.90;;;;;;;30.30;54.07;97526.81;1740628;81;20950;-88
2022/08/20 10:35:21;;;;;;;15.38;9.20;;;;;;;30.40;54.63;97525.06;1750055;81;20914;-90
2022/08/20 10:37:47;;;;;;;16.27;8.90;;;;;;;30.30;54.61;97523.41;1765841;80;20995;-89
2022/08/20 10:40:14;;;;;;;15.88;9.33;;;;;;;30.35;54.48;97517.97;1753514;81;20871;-91
2022/08/20 10:42:42;;;;;;;15.18;8.28;;;;;;;30.00;55.52;97524.84;1740707;81;21078;-88
2022/08/20 10:45:10;;;;;;;12.63;8.53;;;;;;;29.56;57.26;97531.38;1741592;81;21042;-91
2022/08/20 10:47:36;;;;;;;11.05;8.55;;;;;;;29.36;57.07;97528.41;1751962;81;21002;-89
2022/08/20 10:50:04;;;;;;;10.72;8.10;;;;;;;29.12;57.43;97526.86;1738682;81;20926;-91
2022/08/20 10:52:30;;;;;;;12.30;8.65;;;;;;;29.14;57.15;97532.02;1745231;81;20986;-90
2022/08/20 10:54:56;;;;;;;17.45;8.75;;;;;;;28.94;60.27;97532.62;1762715;81;20996;-91
2022/08/20 10:57:27;;;;;;;11.55;9.15;;;;;;;28.86;60.08;97540.03;1750877;81;20882;-88
2022/08/20 10:59:55;;;;;;;14.35;8.68;;;;;;;28.89;60.09;97530.30;1744063;81;21054;-91
2022/08/20 11:02:21;;;;;;;14.35;10.13;;;;;;;28.83;60.67;97532.51;1729894;81;21395;-91
2022/08/20 11:04:47;;;;;;;18.32;9.60;;;;;;;28.89;60.04;97528.08;1748464;81;20973;-91
2022/08/20 11:07:22;;;;;;;12.50;9.63;;;;;;;28.70;60.59;97524.45;1725680;83;21857;-91
2022/08/20 11:09:48;;;;;;;11.93;8.60;;;;;;;28.76;61.44;97529.78;1735490;81;21053;-91
2022/08/20 11:12:16;;;;;;;15.68;9.83;;;;;;;28.64;62.46;97528.30;1756723;80;21493;-91
2022/08/20 11:14:42;;;;;;;18.03;9.67;;;;;;;28.59;62.30;97515.58;1757770;80;20926;-91
2022/08/20 11:17:07;;;;;;;17.73;9.25;;;;;;;28.64;62.16;97515.76;1757830;81;20894;-89
2022/08/20 11:19:42;;;;;;;17.15;10.10;;;;;;;28.54;62.13;97519.41;1747484;81;21235;-89
2022/08/20 11:22:09;;;;;;;16.70;10.38;;;;;;;28.36;63.63;97514.77;1764611;80;21564;-92
2022/08/20 11:24:35;;;;;;;16.23;10.35;;;;;;;28.43;62.49;97506.95;1760584;81;21009;-91